Impacts METAR Board INFO
IDs:

KPHL - Philadelphia Intl, PA, US

Updated at: 1958 UTC 12 Dec 2017
Potential Impact None Slight Moderate High
Time12/07Z 12/08Z 12/09Z 12/10Z 12/11Z 12/12Z 12/13Z 12/14Z 12/15Z 12/16Z 12/17Z 12/18Z 12/19Z
VIS10 10 10 10 10 10 10 10 10 10 10 10 10
CIG140 90 100 170 100 100 110 85 80 80 60 65 70
CoverOVCOVCOVCOVCOVCOVCOVCOVCOVCOVCOVCOVCOVC
FltCatVFRVFRVFRVFRVFRVFRVFRVFRVFRVFRVFRVFRVFR
WX--------------------------
WDir130110160170150190180190220230240230290
WSpd3 4 9 10 10 9 9 8 13 9 10 8 7
WGst-- -- -- -- -- -- -- -- 19 -- -- -- --
Raw hourly METARs
KPHL 120654Z 13003KT 10SM OVC140 03/M02 A2984 RMK AO2 SLP105 T00281022 $
KPHL 120754Z 11004KT 10SM BKN090 OVC120 03/M01 A2980 RMK AO2 PRESFR SLP091 T00281011 $
KPHL 120854Z 16009KT 10SM BKN100 OVC140 06/01 A2975 RMK AO2 SLP075 T00560006 58039 $
KPHL 120954Z 17010KT 10SM FEW100 BKN170 OVC210 06/01 A2971 RMK AO2 SLP061 T00610011 $
KPHL 121054Z 15010KT 10SM BKN100 BKN150 OVC190 06/01 A2966 RMK AO2 SLP045 T00610011 $
KPHL 121154Z 19009KT 10SM BKN100 OVC120 07/02 A2965 RMK AO2 SLP039 T00720017 10072 20022 56035 $
KPHL 121254Z 18009KT 10SM OVC110 08/01 A2961 RMK AO2 SLP027 VIRGA T00780006 $
KPHL 121354Z 19008KT 10SM OVC085 08/01 A2958 RMK AO2 SLP017 VIRGA T00780006 $
KPHL 121454Z 22013G19KT 10SM BKN080 OVC095 07/01 A2959 RMK AO2 SLP019 T00720006 55020 $
KPHL 121554Z 23009KT 10SM OVC080 07/01 A2956 RMK AO2 SLP009 T00720011 $
KPHL 121654Z 24010KT 10SM OVC060 07/02 A2952 RMK AO2 SLP994 T00720017 $
KPHL 121754Z 23008KT 10SM FEW047 OVC065 07/01 A2949 RMK AO2 SLP987 T00720011 10078 20072 56032 $
KPHL 121854Z 29007KT 260V330 10SM SCT060 OVC070 08/M01 A2948 RMK AO2 SLP983 T00781006 $